createdAt,value
2018-12-07T00:00:53.799Z,997.43
2018-12-07T00:01:53.815Z,997.39
2018-12-07T00:02:53.840Z,997.38
2018-12-07T00:03:53.857Z,997.38
2018-12-07T00:04:53.880Z,997.32
2018-12-07T00:05:53.905Z,997.3
2018-12-07T00:06:53.926Z,997.31
2018-12-07T00:07:53.945Z,997.31
2018-12-07T00:08:53.966Z,997.29
2018-12-07T00:09:53.988Z,997.31
2018-12-07T00:10:54.017Z,997.28
2018-12-07T00:11:54.031Z,997.24
2018-12-07T00:12:54.050Z,997.25
2018-12-07T00:13:54.074Z,997.26
2018-12-07T00:14:54.095Z,997.23
2018-12-07T00:15:54.117Z,997.24
2018-12-07T00:16:54.137Z,997.21
2018-12-07T00:17:54.160Z,997.21
2018-12-07T00:18:54.183Z,997.16
2018-12-07T00:19:54.203Z,997.24
2018-12-07T00:20:54.225Z,997.15
2018-12-07T00:21:54.246Z,997.19
2018-12-07T00:22:54.271Z,997.13
2018-12-07T00:23:54.293Z,997.14
2018-12-07T00:24:54.314Z,997.1
2018-12-07T00:25:54.333Z,997.09
2018-12-07T00:26:54.353Z,997.09
2018-12-07T00:27:54.373Z,997.09
2018-12-07T00:28:54.399Z,997.06
2018-12-07T00:29:54.418Z,997.1
2018-12-07T00:30:54.440Z,997.08
2018-12-07T00:31:54.468Z,997.06
2018-12-07T00:32:54.485Z,997.02
2018-12-07T00:33:54.504Z,997.05
2018-12-07T00:34:54.525Z,997.07
2018-12-07T00:35:54.546Z,997.06
2018-12-07T00:36:54.568Z,997.02
2018-12-07T00:37:54.590Z,997.04
2018-12-07T00:38:54.616Z,997.03
2018-12-07T00:39:54.633Z,997.02
2018-12-07T00:40:54.659Z,997.03
2018-12-07T00:41:54.675Z,997.01
2018-12-07T00:42:54.697Z,997.02
2018-12-07T00:43:54.719Z,997.01
2018-12-07T00:44:54.742Z,997.01
2018-12-07T00:45:54.766Z,997.04
2018-12-07T00:46:54.783Z,997.01
2018-12-07T00:47:54.805Z,997.05
2018-12-07T00:48:54.829Z,997.02
2018-12-07T00:49:54.846Z,997
2018-12-07T00:50:54.869Z,996.96
2018-12-07T00:51:54.891Z,996.97
2018-12-07T00:52:54.911Z,996.97
2018-12-07T00:53:54.932Z,996.94
2018-12-07T00:54:54.957Z,996.96
2018-12-07T00:55:54.976Z,996.91
2018-12-07T00:56:55.003Z,996.95
2018-12-07T00:57:55.023Z,996.93
2018-12-07T00:58:55.045Z,996.94
2018-12-07T00:59:55.065Z,996.94
2018-12-07T01:00:55.082Z,996.92
2018-12-07T01:01:55.105Z,996.92
2018-12-07T01:02:55.130Z,996.9
2018-12-07T01:03:55.147Z,996.92
2018-12-07T01:04:55.173Z,996.91
2018-12-07T01:05:55.197Z,996.87
2018-12-07T01:06:55.213Z,996.83
2018-12-07T01:07:55.233Z,996.88
2018-12-07T01:08:55.255Z,996.81
2018-12-07T01:09:55.276Z,996.83
2018-12-07T01:10:55.299Z,996.88
2018-12-07T01:11:55.318Z,996.85
2018-12-07T01:12:55.339Z,996.83
2018-12-07T01:13:55.362Z,996.83
2018-12-07T01:14:55.386Z,996.84
2018-12-07T01:15:55.404Z,996.83
2018-12-07T01:16:55.426Z,996.84
2018-12-07T01:17:55.451Z,996.84
2018-12-07T01:18:55.518Z,996.84
2018-12-07T01:19:55.493Z,996.85
2018-12-07T01:20:55.512Z,996.86
2018-12-07T01:21:55.540Z,996.84
2018-12-07T01:22:55.561Z,996.83
2018-12-07T01:23:55.577Z,996.89
2018-12-07T01:24:55.596Z,996.82
2018-12-07T01:25:55.621Z,996.87
2018-12-07T01:26:55.639Z,996.87
2018-12-07T01:27:55.664Z,996.85
2018-12-07T01:28:55.684Z,996.82
2018-12-07T01:29:55.705Z,996.83
2018-12-07T01:30:55.726Z,996.8
2018-12-07T01:31:55.749Z,996.84
2018-12-07T01:32:55.768Z,996.84
2018-12-07T01:33:55.790Z,996.87
2018-12-07T01:34:55.811Z,996.83
2018-12-07T01:35:55.833Z,996.88
2018-12-07T01:36:55.855Z,996.82
2018-12-07T01:37:55.876Z,996.83
2018-12-07T01:38:55.897Z,996.8
2018-12-07T01:39:55.922Z,996.77
2018-12-07T01:40:55.940Z,996.75
2018-12-07T01:41:55.962Z,996.75
2018-12-07T01:42:55.987Z,996.8
2018-12-07T01:43:56.008Z,996.78
2018-12-07T01:44:56.025Z,996.72
2018-12-07T01:45:56.047Z,996.69
2018-12-07T01:46:56.072Z,996.66
2018-12-07T01:47:56.090Z,996.68
2018-12-07T01:48:56.115Z,996.64
2018-12-07T01:49:56.137Z,996.63
2018-12-07T01:50:56.161Z,996.62
2018-12-07T01:51:56.179Z,996.59
2018-12-07T01:52:56.198Z,996.57
2018-12-07T01:53:56.219Z,996.56
2018-12-07T01:54:56.238Z,996.54
2018-12-07T01:55:56.259Z,996.54
2018-12-07T01:56:56.283Z,996.51
2018-12-07T01:57:56.305Z,996.49
2018-12-07T01:58:56.325Z,996.4
2018-12-07T01:59:56.374Z,996.4
2018-12-07T02:00:56.367Z,996.46
2018-12-07T02:01:56.390Z,996.45
2018-12-07T02:02:56.414Z,996.42
2018-12-07T02:03:56.433Z,996.39
2018-12-07T02:04:56.453Z,996.38
2018-12-07T02:05:56.474Z,996.39
2018-12-07T02:06:56.495Z,996.37
2018-12-07T02:07:56.517Z,996.36
2018-12-07T02:08:56.538Z,996.33
2018-12-07T02:09:56.559Z,996.34
2018-12-07T02:10:56.586Z,996.31
2018-12-07T02:11:56.604Z,996.33
2018-12-07T02:12:56.629Z,996.33
2018-12-07T02:13:56.646Z,996.33
2018-12-07T02:14:56.668Z,996.32
2018-12-07T02:15:56.691Z,996.29
2018-12-07T02:16:56.714Z,996.28
2018-12-07T02:17:56.731Z,996.29
2018-12-07T02:18:56.758Z,996.35
2018-12-07T02:19:56.776Z,996.33
2018-12-07T02:20:56.800Z,996.32
2018-12-07T02:21:56.819Z,996.26
2018-12-07T02:22:56.839Z,996.23
2018-12-07T02:23:56.861Z,996.22
2018-12-07T02:24:56.883Z,996.19
2018-12-07T02:25:56.903Z,996.19
2018-12-07T02:26:56.928Z,996.2
2018-12-07T02:27:56.960Z,996.17
2018-12-07T02:28:56.967Z,996.25
2018-12-07T02:29:56.988Z,996.21
2018-12-07T02:30:57.010Z,996.21
2018-12-07T02:31:57.034Z,996.18
2018-12-07T02:32:57.055Z,996.13
2018-12-07T02:33:57.077Z,996.15
2018-12-07T02:34:57.094Z,996.16
2018-12-07T02:35:57.115Z,996.11
2018-12-07T02:36:57.144Z,996.09
2018-12-07T02:37:57.160Z,996.07
2018-12-07T02:38:57.181Z,996.09
2018-12-07T02:39:57.202Z,996.06
2018-12-07T02:40:57.223Z,996.02
2018-12-07T02:41:57.245Z,996.08
2018-12-07T02:42:57.265Z,996.03
2018-12-07T02:43:57.287Z,996.05
2018-12-07T02:44:57.307Z,996.01
2018-12-07T02:45:57.327Z,996
2018-12-07T02:46:57.349Z,995.94
2018-12-07T02:47:57.426Z,995.9
2018-12-07T02:48:57.391Z,995.87
2018-12-07T02:49:57.413Z,995.91
2018-12-07T02:50:57.434Z,995.87
2018-12-07T02:51:57.458Z,995.86
2018-12-07T02:52:57.478Z,995.83
2018-12-07T02:53:57.498Z,995.82
2018-12-07T02:54:57.519Z,995.78
2018-12-07T02:55:57.540Z,995.76
2018-12-07T02:56:57.561Z,995.74
2018-12-07T02:57:57.587Z,995.75
2018-12-07T02:58:57.604Z,995.71
2018-12-07T02:59:57.629Z,995.73
2018-12-07T03:00:57.648Z,995.71
2018-12-07T03:01:57.667Z,995.69
2018-12-07T03:02:57.694Z,995.67
2018-12-07T03:03:57.710Z,995.58
2018-12-07T03:04:57.742Z,995.61
2018-12-07T03:05:57.758Z,995.58
2018-12-07T03:06:57.777Z,995.57
2018-12-07T03:07:57.795Z,995.54
2018-12-07T03:08:57.816Z,995.5
2018-12-07T03:09:57.838Z,995.5
2018-12-07T03:10:57.861Z,995.48
2018-12-07T03:11:57.880Z,995.47
2018-12-07T03:12:57.908Z,995.44
2018-12-07T03:13:57.923Z,995.41
2018-12-07T03:14:57.944Z,995.39
2018-12-07T03:15:57.969Z,995.38
2018-12-07T03:16:57.992Z,995.39
2018-12-07T03:17:58.013Z,995.34
2018-12-07T03:18:58.028Z,995.33
2018-12-07T03:19:58.056Z,995.31
2018-12-07T03:20:58.072Z,995.32
2018-12-07T03:21:58.102Z,995.32
2018-12-07T03:22:58.119Z,995.27
2018-12-07T03:23:58.135Z,995.26
2018-12-07T03:24:58.156Z,995.27
2018-12-07T03:25:58.184Z,995.26
2018-12-07T03:26:58.203Z,995.26
2018-12-07T03:27:58.221Z,995.26
2018-12-07T03:28:58.241Z,995.23
2018-12-07T03:29:58.263Z,995.29
2018-12-07T03:30:58.297Z,995.23
2018-12-07T03:31:58.397Z,995.22
2018-12-07T03:32:58.328Z,995.19
2018-12-07T03:33:58.346Z,995.22
2018-12-07T03:34:58.368Z,995.17
2018-12-07T03:35:58.393Z,995.24
2018-12-07T03:36:58.417Z,995.16
2018-12-07T03:37:58.434Z,995.15
2018-12-07T03:38:58.454Z,995.14
2018-12-07T03:39:58.478Z,995.16
2018-12-07T03:40:58.494Z,995.13
2018-12-07T03:41:58.519Z,995.12
2018-12-07T03:42:58.537Z,995.11
2018-12-07T03:43:58.563Z,995.12
2018-12-07T03:44:58.579Z,995.07
2018-12-07T03:45:58.604Z,995.1
2018-12-07T03:46:58.626Z,995.09
2018-12-07T03:47:58.644Z,995.09
2018-12-07T03:48:58.666Z,995.05
2018-12-07T03:49:58.687Z,995.08
2018-12-07T03:50:58.708Z,995.09
2018-12-07T03:51:58.729Z,995.1
2018-12-07T03:52:58.749Z,995.05
2018-12-07T03:53:58.772Z,995.03
2018-12-07T03:54:58.793Z,995.03
2018-12-07T03:55:58.812Z,995.06
2018-12-07T03:56:58.833Z,995.05
2018-12-07T03:57:58.862Z,995.05
2018-12-07T03:58:58.877Z,995.03
2018-12-07T03:59:58.898Z,995.03
2018-12-07T04:00:58.923Z,994.99
2018-12-07T04:01:58.946Z,995.01
2018-12-07T04:02:58.965Z,994.98
2018-12-07T04:03:58.985Z,994.97
2018-12-07T04:04:59.006Z,994.94
2018-12-07T04:05:59.030Z,995
2018-12-07T04:06:59.045Z,994.98
2018-12-07T04:07:59.068Z,994.96
2018-12-07T04:08:59.088Z,994.96
2018-12-07T04:09:59.109Z,994.94
2018-12-07T04:10:59.134Z,994.93
2018-12-07T04:11:59.154Z,994.95
2018-12-07T04:12:59.174Z,994.96
2018-12-07T04:13:59.192Z,994.95
2018-12-07T04:14:59.219Z,994.95
2018-12-07T04:15:59.236Z,994.9
2018-12-07T04:16:59.258Z,994.91
2018-12-07T04:17:59.277Z,994.92
2018-12-07T04:18:59.299Z,994.9
2018-12-07T04:19:59.321Z,994.85
2018-12-07T04:20:59.344Z,994.89
2018-12-07T04:21:59.367Z,994.86
2018-12-07T04:22:59.385Z,994.89
2018-12-07T04:23:59.405Z,994.86
2018-12-07T04:24:59.430Z,994.85
2018-12-07T04:25:59.446Z,994.81
2018-12-07T04:26:59.469Z,994.85
2018-12-07T04:27:59.488Z,994.8
2018-12-07T04:28:59.515Z,994.79
2018-12-07T04:29:59.535Z,994.83
2018-12-07T04:30:59.557Z,994.75
2018-12-07T04:31:59.575Z,994.76
2018-12-07T04:32:59.596Z,994.74
2018-12-07T04:33:59.615Z,994.75
2018-12-07T04:34:59.637Z,994.7
2018-12-07T04:36:07.121Z,994.73
2018-12-07T04:36:59.683Z,994.69
2018-12-07T04:37:59.704Z,994.7
2018-12-07T04:38:59.722Z,994.67
2018-12-07T04:39:59.741Z,994.67
2018-12-07T04:40:59.769Z,994.62
2018-12-07T04:41:59.787Z,994.65
2018-12-07T04:42:59.805Z,994.6
2018-12-07T04:43:59.826Z,994.61
2018-12-07T04:44:59.852Z,994.57
2018-12-07T04:45:59.869Z,994.55
2018-12-07T04:46:59.889Z,994.53
2018-12-07T04:47:59.910Z,994.5
2018-12-07T04:48:59.934Z,994.5
2018-12-07T04:49:59.952Z,994.5
2018-12-07T04:50:59.974Z,994.46
2018-12-07T04:51:59.995Z,994.47
2018-12-07T04:53:00.018Z,994.5
2018-12-07T04:54:00.038Z,994.49
2018-12-07T04:55:00.059Z,994.46
2018-12-07T04:56:00.085Z,994.48
2018-12-07T04:57:00.108Z,994.46
2018-12-07T04:58:00.121Z,994.45
2018-12-07T04:59:00.150Z,994.44
2018-12-07T05:00:00.166Z,994.4
2018-12-07T05:01:00.186Z,994.39
2018-12-07T05:02:00.210Z,994.34
2018-12-07T05:03:00.226Z,994.31
2018-12-07T05:04:00.251Z,994.3
2018-12-07T05:05:00.273Z,994.31
2018-12-07T05:06:00.294Z,994.29
2018-12-07T05:07:00.312Z,994.28
2018-12-07T05:08:00.332Z,994.29
2018-12-07T05:09:00.357Z,994.34
2018-12-07T05:10:00.375Z,994.27
2018-12-07T05:11:00.399Z,994.26
2018-12-07T05:12:00.420Z,994.3
2018-12-07T05:13:00.437Z,994.23
2018-12-07T05:14:00.457Z,994.24
2018-12-07T05:15:00.479Z,994.21
2018-12-07T05:16:00.500Z,994.24
2018-12-07T05:17:00.522Z,994.23
2018-12-07T05:18:00.546Z,994.25
2018-12-07T05:19:00.563Z,994.24
2018-12-07T05:20:00.583Z,994.17
2018-12-07T05:21:00.608Z,994.15
2018-12-07T05:22:00.631Z,994.19
2018-12-07T05:23:00.648Z,994.17
2018-12-07T05:24:00.669Z,994.18
2018-12-07T05:25:00.695Z,994.11
2018-12-07T05:26:00.716Z,994.12
2018-12-07T05:27:00.734Z,994.11
2018-12-07T05:28:00.757Z,994.1
2018-12-07T05:29:00.774Z,994.14
2018-12-07T05:30:00.799Z,994.09
2018-12-07T05:31:01.570Z,994.07
2018-12-07T05:32:00.840Z,994.07
2018-12-07T05:33:00.859Z,994.05
2018-12-07T05:34:00.879Z,994.07
2018-12-07T05:35:00.900Z,994.09
2018-12-07T05:36:00.921Z,994.08
2018-12-07T05:37:00.946Z,994.04
2018-12-07T05:38:00.966Z,994.05
2018-12-07T05:39:00.983Z,994.04
2018-12-07T05:40:01.005Z,994.09
2018-12-07T05:41:01.026Z,994.05
2018-12-07T05:42:01.051Z,994.05
2018-12-07T05:43:01.074Z,994.07
2018-12-07T05:44:01.094Z,994.04
2018-12-07T05:45:01.184Z,994.03
2018-12-07T05:46:01.135Z,994
2018-12-07T05:47:01.154Z,994
2018-12-07T05:48:01.173Z,994.04
2018-12-07T05:49:01.203Z,994
2018-12-07T05:50:01.218Z,994.01
2018-12-07T05:51:01.235Z,993.98
2018-12-07T05:52:01.263Z,993.98
2018-12-07T05:53:01.285Z,993.9
2018-12-07T05:54:01.304Z,993.9
2018-12-07T05:55:01.320Z,993.88
2018-12-07T05:56:01.341Z,993.92
2018-12-07T05:57:01.362Z,993.87
2018-12-07T05:58:01.384Z,993.8
2018-12-07T05:59:01.408Z,993.8
2018-12-07T06:00:01.425Z,993.8
2018-12-07T06:01:01.448Z,993.81
2018-12-07T06:02:01.470Z,993.8
2018-12-07T06:03:01.493Z,993.79
2018-12-07T06:04:01.510Z,993.76
2018-12-07T06:05:01.531Z,993.79
2018-12-07T06:06:01.550Z,993.76
2018-12-07T06:07:01.576Z,993.77
2018-12-07T06:08:01.590Z,993.73
2018-12-07T06:09:01.614Z,993.74
2018-12-07T06:10:01.639Z,993.77
2018-12-07T06:11:01.655Z,993.76
2018-12-07T06:12:01.676Z,993.77
2018-12-07T06:13:01.698Z,993.72
2018-12-07T06:14:01.719Z,993.75
2018-12-07T06:15:01.746Z,993.69
2018-12-07T06:16:01.759Z,993.71
2018-12-07T06:17:01.785Z,993.72
2018-12-07T06:18:01.811Z,993.7
2018-12-07T06:19:01.830Z,993.69
2018-12-07T06:20:01.843Z,993.68
2018-12-07T06:21:01.866Z,993.68
2018-12-07T06:22:01.885Z,993.66
2018-12-07T06:23:01.907Z,993.68
2018-12-07T06:24:01.929Z,993.67
2018-12-07T06:25:01.954Z,993.64
2018-12-07T06:26:01.969Z,993.63
2018-12-07T06:27:01.990Z,993.62
2018-12-07T06:28:02.011Z,993.57
2018-12-07T06:29:02.038Z,993.61
2018-12-07T06:30:02.061Z,993.56
2018-12-07T06:31:02.076Z,993.59
2018-12-07T06:32:02.098Z,993.57
2018-12-07T06:33:02.118Z,993.57
2018-12-07T06:34:02.137Z,993.56
2018-12-07T06:35:02.160Z,993.57
2018-12-07T06:36:02.181Z,993.54
2018-12-07T06:37:02.201Z,993.51
2018-12-07T06:38:02.224Z,993.55
2018-12-07T06:39:02.243Z,993.51
2018-12-07T06:40:02.264Z,993.48
2018-12-07T06:41:02.285Z,993.55
2018-12-07T06:42:02.306Z,993.52
2018-12-07T06:43:02.328Z,993.47
2018-12-07T06:44:02.353Z,993.47
2018-12-07T06:45:02.371Z,993.54
2018-12-07T06:46:02.393Z,993.5
2018-12-07T06:47:02.413Z,993.46
2018-12-07T06:48:02.438Z,993.47
2018-12-07T06:49:02.454Z,993.45
2018-12-07T06:50:02.481Z,993.42
2018-12-07T06:51:02.497Z,993.4
2018-12-07T06:52:02.519Z,993.37
2018-12-07T06:53:02.541Z,993.37
2018-12-07T06:54:02.562Z,993.38
2018-12-07T06:55:02.583Z,993.4
2018-12-07T06:56:02.600Z,993.4
2018-12-07T06:57:02.622Z,993.33
2018-12-07T06:58:02.647Z,993.34
2018-12-07T06:59:02.666Z,993.31
2018-12-07T07:00:02.687Z,993.31
2018-12-07T07:01:02.707Z,993.29
2018-12-07T07:02:02.728Z,993.29
2018-12-07T07:03:02.750Z,993.3
2018-12-07T07:04:02.770Z,993.26
2018-12-07T07:05:02.794Z,993.26
2018-12-07T07:06:02.816Z,993.22
2018-12-07T07:07:02.837Z,993.28
2018-12-07T07:08:02.859Z,993.22
2018-12-07T07:09:02.876Z,993.24
2018-12-07T07:10:02.899Z,993.13
2018-12-07T07:11:02.921Z,993.18
2018-12-07T07:12:02.943Z,993.18
2018-12-07T07:13:02.960Z,993.13
2018-12-07T07:14:02.979Z,993.13
2018-12-07T07:15:03.006Z,993.11
2018-12-07T07:16:03.024Z,993.07
2018-12-07T07:17:03.048Z,992.98
2018-12-07T07:18:03.069Z,993
2018-12-07T07:19:03.087Z,993.01
2018-12-07T07:20:03.111Z,993.04
2018-12-07T07:21:03.130Z,993
2018-12-07T07:22:03.151Z,993
2018-12-07T07:23:03.173Z,993
2018-12-07T07:24:03.190Z,992.99
2018-12-07T07:25:03.214Z,992.96
2018-12-07T07:26:03.237Z,992.95
2018-12-07T07:27:03.253Z,992.9
2018-12-07T07:28:03.277Z,992.91
2018-12-07T07:29:03.294Z,992.87
2018-12-07T07:30:03.316Z,992.87
2018-12-07T07:31:03.353Z,992.87
2018-12-07T07:32:03.357Z,992.88
2018-12-07T07:33:03.383Z,992.88
2018-12-07T07:34:03.403Z,992.88
2018-12-07T07:35:03.424Z,992.91
2018-12-07T07:36:03.441Z,992.88
2018-12-07T07:37:03.467Z,992.89
2018-12-07T07:38:03.483Z,992.89
2018-12-07T07:39:03.503Z,992.86
2018-12-07T07:40:03.524Z,992.83
2018-12-07T07:41:03.546Z,992.9
2018-12-07T07:42:03.571Z,992.88
2018-12-07T07:43:03.594Z,992.85
2018-12-07T07:44:03.610Z,992.85
2018-12-07T07:45:03.638Z,992.85
2018-12-07T07:46:03.652Z,992.8
2018-12-07T07:47:03.676Z,992.77
2018-12-07T07:48:03.697Z,992.74
2018-12-07T07:49:03.714Z,992.76
2018-12-07T07:50:03.735Z,992.75
2018-12-07T07:51:03.759Z,992.73
2018-12-07T07:52:03.781Z,992.71
2018-12-07T07:53:03.797Z,992.72
2018-12-07T07:54:03.819Z,992.68
2018-12-07T07:55:03.841Z,992.64
2018-12-07T07:56:03.861Z,992.64
2018-12-07T07:57:03.885Z,992.59
2018-12-07T07:58:03.902Z,992.61
2018-12-07T07:59:03.924Z,992.63
2018-12-07T08:00:03.945Z,992.58
2018-12-07T08:01:03.967Z,992.57
2018-12-07T08:02:03.986Z,992.54
2018-12-07T08:03:04.007Z,992.53
2018-12-07T08:04:04.027Z,992.52
2018-12-07T08:05:04.053Z,992.52
2018-12-07T08:06:04.073Z,992.51
2018-12-07T08:07:04.095Z,992.5
2018-12-07T08:08:04.113Z,992.49
2018-12-07T08:09:04.132Z,992.49
2018-12-07T08:10:04.158Z,992.5
2018-12-07T08:11:04.175Z,992.48
2018-12-07T08:12:04.196Z,992.46
2018-12-07T08:13:04.217Z,992.47
2018-12-07T08:14:04.238Z,992.42
2018-12-07T08:15:04.259Z,992.38
2018-12-07T08:16:04.280Z,992.4
2018-12-07T08:17:04.301Z,992.39
2018-12-07T08:18:04.321Z,992.36
2018-12-07T08:19:04.342Z,992.36
2018-12-07T08:20:04.364Z,992.38
2018-12-07T08:21:04.384Z,992.33
2018-12-07T08:22:04.413Z,992.33
2018-12-07T08:23:04.426Z,992.32
2018-12-07T08:24:04.448Z,992.35
2018-12-07T08:25:04.468Z,992.32
2018-12-07T08:26:04.489Z,992.31
2018-12-07T08:27:04.511Z,992.3
2018-12-07T08:28:04.534Z,992.36
2018-12-07T08:29:04.590Z,992.29
2018-12-07T08:30:04.577Z,992.3
2018-12-07T08:31:04.595Z,992.28
2018-12-07T08:32:04.615Z,992.28
2018-12-07T08:33:04.640Z,992.24
2018-12-07T08:34:04.658Z,992.26
2018-12-07T08:35:04.683Z,992.23
2018-12-07T08:36:04.700Z,992.26
2018-12-07T08:37:04.722Z,992.25
2018-12-07T08:38:04.744Z,992.18
2018-12-07T08:39:04.766Z,992.19
2018-12-07T08:40:04.788Z,992.16
2018-12-07T08:41:04.809Z,992.1
2018-12-07T08:42:06.832Z,992.12
2018-12-07T08:43:04.853Z,992.14
2018-12-07T08:44:04.906Z,992.06
2018-12-07T08:45:04.893Z,992.08
2018-12-07T08:46:04.913Z,992.07
2018-12-07T08:47:04.935Z,992.04
2018-12-07T08:48:04.952Z,992.02
2018-12-07T08:49:04.974Z,992.02
2018-12-07T08:50:04.995Z,992.02
2018-12-07T08:51:05.015Z,992.01
2018-12-07T08:52:05.035Z,992.03
2018-12-07T08:53:05.056Z,991.98
2018-12-07T08:54:05.079Z,991.94
2018-12-07T08:55:05.099Z,991.94
2018-12-07T08:56:05.122Z,991.98
2018-12-07T08:57:05.143Z,991.97
2018-12-07T08:58:05.162Z,991.92
2018-12-07T08:59:05.182Z,991.91
2018-12-07T09:00:05.203Z,991.92
2018-12-07T09:01:05.229Z,991.93
2018-12-07T09:02:05.246Z,991.88
2018-12-07T09:03:05.272Z,991.91
2018-12-07T09:04:05.287Z,991.86
2018-12-07T09:05:05.314Z,991.88
2018-12-07T09:06:05.334Z,991.92
2018-12-07T09:07:05.350Z,991.86
2018-12-07T09:08:05.372Z,991.84
2018-12-07T09:09:05.393Z,991.83
2018-12-07T09:10:05.416Z,991.82
2018-12-07T09:11:05.436Z,991.84
2018-12-07T09:12:05.455Z,991.83
2018-12-07T09:13:05.477Z,991.77
2018-12-07T09:14:05.498Z,991.78
2018-12-07T09:15:05.519Z,991.73
2018-12-07T09:16:05.543Z,991.75
2018-12-07T09:17:05.560Z,991.75
2018-12-07T09:18:05.581Z,991.7
2018-12-07T09:19:05.607Z,991.68
2018-12-07T09:20:05.630Z,991.75
2018-12-07T09:21:05.645Z,991.63
2018-12-07T09:22:05.670Z,991.69
2018-12-07T09:23:05.687Z,991.67
2018-12-07T09:24:05.712Z,991.69
2018-12-07T09:25:05.734Z,991.61
2018-12-07T09:26:05.756Z,991.62
2018-12-07T09:27:05.775Z,991.62
2018-12-07T09:28:05.791Z,991.59
2018-12-07T09:29:05.813Z,991.6
2018-12-07T09:30:05.834Z,991.58
2018-12-07T09:31:05.862Z,991.61
2018-12-07T09:32:05.875Z,991.55
2018-12-07T09:33:05.898Z,991.55
2018-12-07T09:34:05.919Z,991.55
2018-12-07T09:35:05.942Z,991.53
2018-12-07T09:36:05.959Z,991.47
2018-12-07T09:37:05.980Z,991.5
2018-12-07T09:38:12.916Z,991.5
2018-12-07T09:39:06.021Z,991.53
2018-12-07T09:40:06.053Z,991.5
2018-12-07T09:41:06.065Z,991.48
2018-12-07T09:42:06.086Z,991.49
2018-12-07T09:43:06.106Z,991.46
2018-12-07T09:44:06.128Z,991.45
2018-12-07T09:45:06.149Z,991.46
2018-12-07T09:46:06.173Z,991.46
2018-12-07T09:47:06.191Z,991.45
2018-12-07T09:48:06.212Z,991.46
2018-12-07T09:49:06.234Z,991.41
2018-12-07T09:50:06.255Z,991.41
2018-12-07T09:51:06.278Z,991.36
2018-12-07T09:52:06.294Z,991.42
2018-12-07T09:53:06.318Z,991.34
2018-12-07T09:54:06.336Z,991.31
2018-12-07T09:55:06.359Z,991.36
2018-12-07T09:56:06.380Z,991.31
2018-12-07T09:57:06.402Z,991.28
2018-12-07T09:58:06.419Z,991.24
2018-12-07T09:59:06.447Z,991.24
2018-12-07T10:00:06.468Z,991.23
2018-12-07T10:01:06.487Z,991.2
2018-12-07T10:02:06.507Z,991.22
2018-12-07T10:03:06.526Z,991.22
2018-12-07T10:04:06.552Z,991.14
2018-12-07T10:05:06.571Z,991.14
2018-12-07T10:06:06.594Z,991.13
2018-12-07T10:07:06.612Z,991.16
2018-12-07T10:08:06.632Z,991.07
2018-12-07T10:09:06.658Z,991.07
2018-12-07T10:10:06.675Z,990.99
2018-12-07T10:11:06.700Z,991.04
2018-12-07T10:12:06.716Z,990.96
2018-12-07T10:13:08.044Z,990.94
2018-12-07T10:14:06.760Z,990.91
2018-12-07T10:15:06.779Z,990.88
2018-12-07T10:16:06.805Z,990.92
2018-12-07T10:17:06.824Z,990.88
2018-12-07T10:18:06.844Z,990.87
2018-12-07T10:19:06.865Z,990.82
2018-12-07T10:20:06.886Z,990.77
2018-12-07T10:21:06.907Z,990.73
2018-12-07T10:22:06.928Z,990.66
2018-12-07T10:23:06.953Z,990.64
2018-12-07T10:24:06.974Z,990.62
2018-12-07T10:25:06.996Z,990.59
2018-12-07T10:26:07.013Z,990.52
2018-12-07T10:27:07.037Z,990.48
2018-12-07T10:28:07.054Z,990.5
2018-12-07T10:29:07.074Z,990.46
2018-12-07T10:30:07.102Z,990.46
2018-12-07T10:31:07.116Z,990.44
2018-12-07T10:32:07.138Z,990.47
2018-12-07T10:33:07.159Z,990.42
2018-12-07T10:34:07.184Z,990.42
2018-12-07T10:35:07.257Z,990.38
2018-12-07T10:36:07.223Z,990.34
2018-12-07T10:37:07.244Z,990.36
2018-12-07T10:38:07.264Z,990.31
2018-12-07T10:39:07.286Z,990.27
2018-12-07T10:40:07.312Z,990.22
2018-12-07T10:41:07.328Z,990.22
2018-12-07T10:42:07.353Z,990.2
2018-12-07T10:43:07.370Z,990.19
2018-12-07T10:44:07.395Z,990.07
2018-12-07T10:45:07.412Z,990.12
2018-12-07T10:46:07.433Z,990.08
2018-12-07T10:47:07.455Z,990.09
2018-12-07T10:48:07.476Z,990.02
2018-12-07T10:49:07.496Z,989.99
2018-12-07T10:50:07.521Z,989.97
2018-12-07T10:51:08.062Z,989.91
2018-12-07T10:52:07.559Z,989.95
2018-12-07T10:53:07.580Z,989.94
2018-12-07T10:54:07.602Z,989.9
2018-12-07T10:55:08.142Z,989.89
2018-12-07T10:56:07.643Z,989.92
2018-12-07T10:57:07.666Z,989.9
2018-12-07T10:58:07.693Z,989.82
2018-12-07T10:59:07.707Z,989.82
2018-12-07T11:00:07.729Z,989.78
2018-12-07T11:01:07.749Z,989.76
2018-12-07T11:02:07.774Z,989.72
2018-12-07T11:03:07.792Z,989.71
2018-12-07T11:04:07.813Z,989.64
2018-12-07T11:05:07.838Z,989.57
2018-12-07T11:06:07.857Z,989.56
2018-12-07T11:07:07.880Z,989.55
2018-12-07T11:08:07.898Z,989.52
2018-12-07T11:09:07.919Z,989.51
2018-12-07T11:10:07.940Z,989.47
2018-12-07T11:11:07.961Z,989.47
2018-12-07T11:12:07.983Z,989.46
2018-12-07T11:13:08.004Z,989.45
2018-12-07T11:14:08.023Z,989.43
2018-12-07T11:15:08.086Z,989.36
2018-12-07T11:16:08.070Z,989.34
2018-12-07T11:17:08.087Z,989.32
2018-12-07T11:18:08.125Z,989.32
2018-12-07T11:19:08.128Z,989.25
2018-12-07T11:20:08.151Z,989.16
2018-12-07T11:21:08.175Z,989.17
2018-12-07T11:22:08.192Z,989.09
2018-12-07T11:23:08.217Z,989.09
2018-12-07T11:24:08.237Z,989.08
2018-12-07T11:25:08.256Z,989.08
2018-12-07T11:26:08.282Z,989.05
2018-12-07T11:27:08.303Z,989.04
2018-12-07T11:28:08.323Z,989.02
2018-12-07T11:29:08.344Z,989.01
2018-12-07T11:30:08.368Z,988.99
2018-12-07T11:31:08.383Z,988.92
2018-12-07T11:32:08.403Z,988.96
2018-12-07T11:33:08.428Z,988.87
2018-12-07T11:34:08.448Z,988.92
2018-12-07T11:35:08.473Z,988.85
2018-12-07T11:36:08.506Z,988.82
2018-12-07T11:37:08.507Z,988.77
2018-12-07T11:38:08.531Z,988.79
2018-12-07T11:39:08.553Z,988.76
2018-12-07T11:40:08.573Z,988.75
2018-12-07T11:41:08.593Z,988.69
2018-12-07T11:42:08.614Z,988.63
2018-12-07T11:43:08.641Z,988.61
2018-12-07T11:44:08.659Z,988.54
2018-12-07T11:45:08.683Z,988.51
2018-12-07T11:46:08.706Z,988.48
2018-12-07T11:47:08.725Z,988.39
2018-12-07T11:48:08.741Z,988.41
2018-12-07T11:49:08.764Z,988.44
2018-12-07T11:50:08.786Z,988.43
2018-12-07T11:51:08.804Z,988.46
2018-12-07T11:52:08.827Z,988.39
2018-12-07T11:53:08.855Z,988.39
2018-12-07T11:54:08.875Z,988.34
2018-12-07T11:55:08.890Z,988.32
2018-12-07T11:56:08.912Z,988.29
2018-12-07T11:57:08.939Z,988.31
2018-12-07T11:58:08.958Z,988.22
2018-12-07T11:59:08.973Z,988.27
2018-12-07T12:00:08.997Z,988.28
2018-12-07T12:01:09.017Z,988.27
2018-12-07T12:02:09.039Z,988.27
2018-12-07T12:03:09.062Z,988.24
2018-12-07T12:04:09.080Z,988.24
2018-12-07T12:05:09.103Z,988.25
2018-12-07T12:06:09.121Z,988.26
2018-12-07T12:07:09.143Z,988.22
2018-12-07T12:08:09.165Z,988.19
2018-12-07T12:09:09.185Z,988.2
2018-12-07T12:10:09.236Z,988.24
2018-12-07T12:11:09.228Z,988.19
2018-12-07T12:12:09.254Z,988.16
2018-12-07T12:13:09.272Z,988.19
2018-12-07T12:14:09.291Z,988.2
2018-12-07T12:15:09.317Z,988.13
2018-12-07T12:16:09.333Z,988.09
2018-12-07T12:17:09.356Z,988.06
2018-12-07T12:18:09.376Z,988.05
2018-12-07T12:19:09.399Z,988.07
2018-12-07T12:20:09.418Z,988
2018-12-07T12:21:09.440Z,987.94
2018-12-07T12:22:09.460Z,987.96
2018-12-07T12:23:09.480Z,987.85
2018-12-07T12:24:09.501Z,987.92
2018-12-07T12:25:09.523Z,987.91
2018-12-07T12:26:09.544Z,987.89
2018-12-07T12:27:09.565Z,987.81
2018-12-07T12:28:09.587Z,987.86
2018-12-07T12:29:09.607Z,987.84
2018-12-07T12:30:09.629Z,987.86
2018-12-07T12:31:09.654Z,987.88
2018-12-07T12:32:09.675Z,987.86